Time;durP1;ratioP1;P1;durP2;ratioP2;P2;SDS_P1;SDS_P2;PMS_P1;PMS_P2;Temp;Humidity;BMP_temperature;BMP_pressure;BME280_temperature;BME280_humidity;BME280_pressure;Samples;Min_cycle;Max_cycle;Signal;HPM_P1;HPM_P2
2022/08/13 00:01:22;;;;;;;9.05;4.88;;;22.40;47.80;;;;;;4994023;28;20484;-73
2022/08/13 00:03:49;;;;;;;11.73;5.55;;;22.40;48.20;;;;;;5011894;28;20049;-72
2022/08/13 00:06:23;;;;;;;8.00;4.88;;;22.30;48.40;;;;;;4993706;28;20440;-71
2022/08/13 00:08:49;;;;;;;;;;;22.30;48.60;;;;;;4997254;28;20026;-72
2022/08/13 00:12:56;;;;;;;10.98;5.00;;;22.30;48.70;;;;;;4997956;28;19963;-72
2022/08/13 00:14:02;;;;;;;9.32;4.80;;;22.20;48.80;;;;;;4995847;28;20034;-73
2022/08/13 00:16:28;;;;;;;12.48;5.05;;;22.20;48.90;;;;;;4992351;28;20038;-74
2022/08/13 00:18:54;;;;;;;10.90;4.82;;;22.10;49.00;;;;;;4994092;28;20495;-71
2022/08/13 00:21:21;;;;;;;8.90;4.90;;;22.10;48.80;;;;;;4994936;28;20038;-72
2022/08/13 00:23:47;;;;;;;9.93;5.00;;;22.10;48.50;;;;;;4995457;28;20061;-73
2022/08/13 00:26:14;;;;;;;8.80;5.28;;;22.10;48.20;;;;;;4991615;28;20294;-73
2022/08/13 00:28:40;;;;;;;9.80;5.60;;;22.10;48.50;;;;;;4994556;28;20044;-74
2022/08/13 00:31:05;;;;;;;9.18;5.65;;;22.00;48.50;;;;;;4993254;28;20555;-72
2022/08/13 00:33:31;;;;;;;13.55;5.68;;;22.00;48.50;;;;;;5025715;28;20030;-72
2022/08/13 00:35:57;;;;;;;8.30;5.85;;;21.90;48.70;;;;;;4994580;28;20125;-72
2022/08/13 00:38:29;;;;;;;10.52;5.72;;;21.90;48.60;;;;;;5009086;28;20117;-72
2022/08/13 00:40:58;;;;;;;9.98;5.85;;;21.80;49.20;;;;;;4997278;28;20116;-71
2022/08/13 00:43:33;;;;;;;9.85;5.38;;;21.80;49.10;;;;;;4988086;28;20054;-72
2022/08/13 00:46:00;;;;;;;8.27;5.32;;;21.70;49.40;;;;;;4995084;28;20145;-73
2022/08/13 00:48:47;;;;;;;13.43;6.13;;;21.80;49.30;;;;;;4991489;28;20136;-71
2022/08/13 00:51:15;;;;;;;9.85;6.13;;;21.70;49.20;;;;;;4993566;28;20033;-71
2022/08/13 00:53:41;;;;;;;8.95;5.80;;;21.70;49.40;;;;;;4995068;28;20577;-71
2022/08/13 00:56:10;;;;;;;9.15;6.00;;;21.70;49.40;;;;;;4990826;28;20042;-72
2022/08/13 00:58:36;;;;;;;9.95;5.95;;;21.70;49.40;;;;;;4992911;28;20037;-73
2022/08/13 01:01:04;;;;;;;9.48;5.95;;;21.60;49.40;;;;;;4995500;28;21028;-72
2022/08/13 01:03:32;;;;;;;9.35;5.45;;;21.60;49.50;;;;;;4989160;28;20038;-73
2022/08/13 01:06:02;;;;;;;9.75;6.40;;;21.50;49.70;;;;;;5023239;28;20037;-73
2022/08/13 01:08:34;;;;;;;10.98;6.07;;;21.40;50.00;;;;;;4989924;28;20581;-72
2022/08/13 01:11:03;;;;;;;10.32;6.80;;;21.40;50.20;;;;;;4995272;28;20051;-72
2022/08/13 01:13:33;;;;;;;10.63;6.63;;;21.30;50.50;;;;;;4996597;28;20271;-73
2022/08/13 01:16:04;;;;;;;10.43;7.10;;;21.20;50.80;;;;;;4994217;28;21543;-74
2022/08/13 01:18:31;;;;;;;12.32;6.85;;;21.20;51.30;;;;;;4995469;28;20373;-71
2022/08/13 01:21:02;;;;;;;11.05;6.43;;;21.10;51.40;;;;;;4991753;28;20026;-72
2022/08/13 01:23:29;;;;;;;11.18;6.72;;;21.10;51.30;;;;;;5020858;28;20108;-72
2022/08/13 01:25:57;;;;;;;13.32;7.05;;;21.10;51.30;;;;;;4994365;28;20541;-72
2022/08/13 01:28:22;;;;;;;12.10;7.03;;;21.00;50.90;;;;;;4995689;28;20046;-72
2022/08/13 01:30:50;;;;;;;10.88;7.80;;;21.00;51.10;;;;;;5009268;28;20486;-72
2022/08/13 01:33:17;;;;;;;12.10;8.25;;;21.00;50.90;;;;;;4993271;28;20022;-72
2022/08/13 01:35:44;;;;;;;10.00;7.43;;;21.00;50.90;;;;;;4992868;28;20069;-72
2022/08/13 01:38:10;;;;;;;14.77;8.00;;;21.00;50.90;;;;;;4991539;28;20038;-72
2022/08/13 01:40:36;;;;;;;11.18;7.40;;;21.00;51.00;;;;;;4994877;28;20488;-73
2022/08/13 01:43:03;;;;;;;12.38;7.93;;;20.90;51.10;;;;;;4993738;28;20049;-72
2022/08/13 01:45:31;;;;;;;11.55;7.78;;;20.80;51.30;;;;;;4997425;28;20050;-72
2022/08/13 01:50:49;;;;;;;10.32;7.65;;;20.70;51.60;;;;;;4983863;28;20060;-72
2022/08/13 01:53:16;;;;;;;11.48;7.80;;;20.60;51.80;;;;;;4996605;28;20125;-71
2022/08/13 01:55:53;;;;;;;11.18;7.25;;;20.60;51.90;;;;;;5003851;28;20026;-72
2022/08/13 01:58:24;;;;;;;12.75;7.30;;;20.50;52.20;;;;;;4995222;28;20030;-72
2022/08/13 02:00:54;;;;;;;12.60;6.43;;;20.40;52.40;;;;;;4998643;28;20034;-73
2022/08/13 02:03:20;;;;;;;10.70;6.55;;;20.40;52.50;;;;;;4996804;28;20045;-71
2022/08/13 02:05:48;;;;;;;13.68;7.43;;;20.30;52.60;;;;;;4998326;28;20037;-72
2022/08/13 02:08:20;;;;;;;10.95;7.28;;;20.30;52.60;;;;;;4998483;28;20050;-74
2022/08/13 02:10:47;;;;;;;9.82;6.60;;;20.30;52.70;;;;;;4996143;28;20524;-72
2022/08/13 02:13:16;;;;;;;12.73;7.55;;;20.30;52.60;;;;;;4994568;28;20038;-71
2022/08/13 02:15:43;;;;;;;11.10;7.03;;;20.20;52.70;;;;;;4995931;28;20750;-72
2022/08/13 02:18:17;;;;;;;10.07;6.13;;;20.20;52.70;;;;;;4996009;28;20977;-74
2022/08/13 02:20:45;;;;;;;10.98;6.93;;;20.10;53.00;;;;;;4998898;28;20116;-72
2022/08/13 02:23:27;;;;;;;12.48;7.22;;;20.20;53.30;;;;;;4997550;28;20038;-72
2022/08/13 02:25:53;;;;;;;16.30;7.95;;;20.20;53.40;;;;;;4998900;28;20486;-73
2022/08/13 02:28:21;;;;;;;11.13;7.35;;;20.10;53.30;;;;;;4994292;28;20125;-72
2022/08/13 02:30:48;;;;;;;9.85;6.85;;;20.10;53.20;;;;;;4998538;28;20069;-73
2022/08/13 02:33:15;;;;;;;10.80;7.03;;;20.00;53.40;;;;;;4998083;28;20038;-73
2022/08/13 02:35:42;;;;;;;10.38;7.18;;;19.90;53.50;;;;;;4989377;28;20053;-71
2022/08/13 02:38:11;;;;;;;10.00;6.57;;;20.00;53.40;;;;;;4994864;28;20485;-72
2022/08/13 02:43:24;;;;;;;9.98;7.05;;;19.90;53.70;;;;;;4994656;28;20224;-71
2022/08/13 02:45:53;;;;;;;10.88;7.20;;;19.80;53.70;;;;;;4993852;28;20046;-71
2022/08/13 02:48:19;;;;;;;10.88;7.72;;;19.80;54.10;;;;;;4993275;28;20048;-72
2022/08/13 02:50:45;;;;;;;8.77;6.95;;;19.80;54.10;;;;;;4996920;28;20169;-72
2022/08/13 02:53:15;;;;;;;9.70;6.95;;;19.80;54.00;;;;;;4999509;28;20449;-71
2022/08/13 02:55:41;;;;;;;11.00;7.00;;;19.80;53.80;;;;;;4995587;28;20489;-72
2022/08/13 02:58:08;;;;;;;9.93;7.22;;;19.80;53.80;;;;;;4995162;28;20458;-72
2022/08/13 03:00:35;;;;;;;12.05;6.78;;;19.80;54.00;;;;;;4995125;28;20475;-72
2022/08/13 03:03:03;;;;;;;10.85;7.03;;;19.70;54.00;;;;;;5024444;28;20113;-71
2022/08/13 03:05:32;;;;;;;8.95;6.15;;;19.70;54.00;;;;;;4995310;28;20437;-72
2022/08/13 03:07:58;;;;;;;9.55;6.57;;;19.70;54.20;;;;;;4998764;28;20030;-71
2022/08/13 03:10:26;;;;;;;11.45;6.35;;;19.70;54.20;;;;;;4995950;28;20042;-72
2022/08/13 03:12:58;;;;;;;9.60;6.50;;;19.60;54.30;;;;;;4992166;28;20048;-72
2022/08/13 03:15:26;;;;;;;10.07;7.15;;;19.60;54.20;;;;;;4986481;28;20042;-71
2022/08/13 03:17:52;;;;;;;11.93;6.85;;;19.60;54.30;;;;;;4997592;28;20038;-72
2022/08/13 03:20:18;;;;;;;10.55;7.68;;;19.50;54.40;;;;;;4992842;28;21260;-72
2022/08/13 03:22:58;;;;;;;12.30;7.85;;;19.40;54.60;;;;;;4996718;28;20038;-74
2022/08/13 03:25:26;;;;;;;12.02;7.57;;;19.40;54.70;;;;;;4993421;28;20054;-72
2022/08/13 03:27:53;;;;;;;11.50;7.25;;;19.30;55.00;;;;;;4994363;28;20481;-72
2022/08/13 03:30:21;;;;;;;11.73;7.32;;;19.30;55.10;;;;;;4995306;28;20025;-71
2022/08/13 03:32:48;;;;;;;10.35;6.88;;;19.30;55.30;;;;;;4995270;28;21640;-72
2022/08/13 03:35:23;;;;;;;14.95;7.97;;;19.20;55.40;;;;;;4994482;28;20160;-72
2022/08/13 03:37:53;;;;;;;9.52;6.68;;;19.10;55.40;;;;;;4993583;28;20046;-71
2022/08/13 03:40:20;;;;;;;11.15;7.20;;;19.20;55.30;;;;;;5003310;28;20045;-72
2022/08/13 03:42:50;;;;;;;12.48;7.22;;;19.20;55.50;;;;;;4989461;28;20037;-71
2022/08/13 03:45:17;;;;;;;10.80;7.13;;;19.20;55.50;;;;;;4990259;28;20114;-74
2022/08/13 03:47:44;;;;;;;12.88;7.55;;;19.10;55.80;;;;;;4986839;28;20444;-72
2022/08/13 03:50:12;;;;;;;12.82;7.40;;;18.90;56.20;;;;;;4992166;28;20030;-72
2022/08/13 03:52:38;;;;;;;9.38;7.03;;;18.80;56.50;;;;;;4992816;28;20053;-72
2022/08/13 03:55:09;;;;;;;10.02;6.85;;;18.90;56.80;;;;;;4991011;28;20045;-74
2022/08/13 03:57:40;;;;;;;12.65;7.65;;;18.90;56.70;;;;;;4993342;28;20045;-72
2022/08/13 04:00:09;;;;;;;13.30;7.90;;;18.90;56.70;;;;;;4994114;28;20042;-72
2022/08/13 04:02:38;;;;;;;13.30;9.00;;;18.80;57.00;;;;;;4995767;28;20167;-72
2022/08/13 04:05:04;;;;;;;12.25;7.43;;;18.80;57.10;;;;;;4996084;28;20562;-71
2022/08/13 04:07:29;;;;;;;12.73;7.47;;;18.70;57.40;;;;;;4995995;28;20056;-71
2022/08/13 04:09:55;;;;;;;12.13;7.45;;;18.80;57.20;;;;;;4994771;28;20145;-74
2022/08/13 04:12:21;;;;;;;11.52;7.82;;;18.80;57.20;;;;;;4993583;28;20053;-71
2022/08/13 04:14:47;;;;;;;12.60;7.50;;;18.80;57.20;;;;;;4998380;28;20038;-72
2022/08/13 04:17:13;;;;;;;10.90;7.82;;;18.80;57.10;;;;;;4993184;28;20362;-72
2022/08/13 04:19:42;;;;;;;12.20;7.85;;;18.80;57.30;;;;;;4994906;28;20330;-70
2022/08/13 04:22:10;;;;;;;13.77;7.45;;;18.80;57.20;;;;;;4986417;28;20092;-73
2022/08/13 04:24:36;;;;;;;13.90;7.97;;;18.90;57.20;;;;;;4994505;28;20463;-74
2022/08/13 04:27:04;;;;;;;11.80;7.88;;;18.80;57.10;;;;;;4994675;28;20250;-73
2022/08/13 04:29:30;;;;;;;12.52;8.15;;;18.90;57.20;;;;;;4995508;28;20038;-74
2022/08/13 04:31:56;;;;;;;13.35;7.88;;;18.90;57.20;;;;;;4994130;28;20152;-73
2022/08/13 04:34:25;;;;;;;10.65;7.25;;;18.90;57.20;;;;;;4992578;28;20038;-71
2022/08/13 04:36:51;;;;;;;11.10;7.07;;;18.90;57.40;;;;;;5002872;28;20048;-74
2022/08/13 04:39:17;;;;;;;13.88;7.80;;;18.90;57.50;;;;;;5002399;28;20041;-74
2022/08/13 04:41:43;;;;;;;9.57;6.68;;;18.80;57.60;;;;;;4995909;28;20037;-74
2022/08/13 04:44:08;;;;;;;11.38;7.25;;;18.90;58.00;;;;;;4986979;28;20075;-71
2022/08/13 04:46:34;;;;;;;11.80;7.22;;;18.90;58.10;;;;;;4995591;28;20095;-71
2022/08/13 04:49:00;;;;;;;11.90;7.15;;;18.90;58.00;;;;;;4995089;28;20466;-71
2022/08/13 04:51:26;;;;;;;11.57;7.10;;;18.90;57.90;;;;;;4995760;28;20046;-75
2022/08/13 04:53:52;;;;;;;10.73;7.30;;;18.90;57.80;;;;;;4992200;28;20130;-71
2022/08/13 04:56:18;;;;;;;10.90;7.40;;;18.80;58.00;;;;;;4991193;28;20046;-72
2022/08/13 04:58:45;;;;;;;12.77;8.35;;;18.90;58.00;;;;;;4994163;28;20544;-73
2022/08/13 05:01:12;;;;;;;10.63;7.43;;;18.80;58.20;;;;;;4993168;28;20352;-71
2022/08/13 05:03:39;;;;;;;10.55;7.40;;;18.80;58.20;;;;;;4992418;28;20085;-70
2022/08/13 05:06:06;;;;;;;10.63;7.63;;;18.80;58.40;;;;;;4994003;28;20034;-74
2022/08/13 05:08:33;;;;;;;10.43;6.88;;;18.80;58.60;;;;;;4996771;28;20501;-71
2022/08/13 05:11:00;;;;;;;11.90;8.13;;;18.80;58.50;;;;;;4992473;28;21324;-71
2022/08/13 05:13:36;;;;;;;13.55;8.32;;;18.80;58.20;;;;;;4995366;28;20093;-75
2022/08/13 05:16:06;;;;;;;12.20;7.93;;;18.80;58.40;;;;;;4993605;28;20488;-74
2022/08/13 05:18:33;;;;;;;9.48;7.25;;;18.80;58.30;;;;;;4994466;28;20045;-71
2022/08/13 05:21:05;;;;;;;13.07;7.25;;;18.80;58.40;;;;;;4992932;28;20037;-71
2022/08/13 05:23:35;;;;;;;12.70;7.50;;;18.90;58.40;;;;;;4993577;28;20042;-71
2022/08/13 05:26:01;;;;;;;11.90;8.00;;;18.90;58.30;;;;;;4993929;28;20118;-73
2022/08/13 05:28:28;;;;;;;11.40;8.15;;;18.90;58.00;;;;;;4993039;28;20034;-72
2022/08/13 05:30:53;;;;;;;10.73;8.15;;;18.90;58.00;;;;;;4996413;28;20560;-73
2022/08/13 05:33:25;;;;;;;12.20;7.95;;;18.90;58.10;;;;;;4991392;28;20038;-70
2022/08/13 05:35:55;;;;;;;11.45;8.05;;;18.90;58.10;;;;;;4993936;28;20041;-71
2022/08/13 05:38:22;;;;;;;11.52;7.40;;;18.90;58.30;;;;;;4993761;28;20962;-74
2022/08/13 05:40:51;;;;;;;11.63;8.57;;;18.90;58.30;;;;;;4994222;28;21402;-72
2022/08/13 05:43:19;;;;;;;12.07;8.50;;;19.00;58.40;;;;;;4993452;28;20124;-72
2022/08/13 05:46:00;;;;;;;13.05;7.80;;;19.10;58.00;;;;;;4990114;28;20041;-72
2022/08/13 05:48:30;;;;;;;9.65;7.50;;;19.10;58.00;;;;;;4995033;28;20045;-74
2022/08/13 05:50:59;;;;;;;12.43;7.72;;;19.10;57.80;;;;;;4990450;28;20038;-73
2022/08/13 05:53:26;;;;;;;9.88;7.63;;;19.10;57.60;;;;;;4994049;28;20046;-74
2022/08/13 05:55:55;;;;;;;11.07;7.78;;;19.20;57.40;;;;;;5006661;28;20064;-73
2022/08/13 05:58:23;;;;;;;11.77;7.45;;;19.30;57.50;;;;;;5005619;28;20048;-71
2022/08/13 06:03:33;;;;;;;14.35;7.63;;;19.40;57.20;;;;;;4993988;28;20045;-73
2022/08/13 06:06:01;;;;;;;13.00;7.70;;;19.60;57.20;;;;;;4989762;28;20366;-72
2022/08/13 06:08:36;;;;;;;14.30;7.15;;;19.60;56.90;;;;;;4983124;28;20481;-73
2022/08/13 06:11:08;;;;;;;13.68;7.47;;;19.60;56.90;;;;;;5005781;28;20085;-73
2022/08/13 06:13:38;;;;;;;13.93;6.82;;;19.80;56.50;;;;;;4994111;28;20298;-71
2022/08/13 06:16:06;;;;;;;16.80;7.68;;;20.00;56.50;;;;;;4992386;28;20311;-71
2022/08/13 06:18:34;;;;;;;14.93;7.97;;;20.10;55.50;;;;;;4994713;28;20148;-73
2022/08/13 06:21:02;;;;;;;11.45;7.25;;;20.10;55.60;;;;;;4993013;28;20037;-71
2022/08/13 06:23:30;;;;;;;17.13;7.75;;;20.20;55.30;;;;;;4994454;28;20035;-71
2022/08/13 06:25:57;;;;;;;11.38;7.00;;;20.40;55.20;;;;;;4991583;28;20054;-72
2022/08/13 06:28:26;;;;;;;15.60;6.50;;;20.60;55.30;;;;;;4993865;28;20034;-71
2022/08/13 06:30:58;;;;;;;11.50;7.45;;;20.80;54.90;;;;;;4994397;28;20169;-71
2022/08/13 06:33:25;;;;;;;12.65;7.05;;;21.00;53.30;;;;;;4992700;28;20041;-71
2022/08/13 06:35:56;;;;;;;12.50;8.25;;;21.10;53.60;;;;;;4996367;28;20026;-74
2022/08/13 06:38:32;;;;;;;11.77;6.75;;;21.40;52.90;;;;;;4992035;28;20041;-74
2022/08/13 06:41:02;;;;;;;13.40;6.63;;;21.60;52.60;;;;;;5001911;28;20490;-71
2022/08/13 06:43:37;;;;;;;10.93;5.70;;;21.70;52.20;;;;;;4992371;28;20532;-74
2022/08/13 06:46:05;;;;;;;10.25;5.57;;;21.90;52.30;;;;;;4992116;28;20042;-71
2022/08/13 06:48:33;;;;;;;11.30;6.13;;;22.10;50.90;;;;;;4991213;28;20156;-71
2022/08/13 06:50:59;;;;;;;10.68;6.05;;;22.40;50.60;;;;;;4992769;28;20053;-71
2022/08/13 06:53:24;;;;;;;11.02;5.70;;;22.60;50.10;;;;;;5022238;28;20042;-71
2022/08/13 06:55:52;;;;;;;13.70;6.65;;;22.90;49.30;;;;;;4994492;28;20034;-72
2022/08/13 06:58:25;;;;;;;9.10;5.25;;;23.10;48.20;;;;;;4993625;28;20038;-72
2022/08/13 07:00:53;;;;;;;11.93;5.93;;;23.30;47.80;;;;;;4990237;28;20048;-73
2022/08/13 07:03:23;;;;;;;14.25;5.60;;;23.50;47.30;;;;;;4990061;28;21422;-71
2022/08/13 07:05:49;;;;;;;8.98;4.65;;;23.60;46.50;;;;;;5027289;28;20046;-70
2022/08/13 07:08:15;;;;;;;8.27;4.20;;;23.80;46.70;;;;;;4990567;28;21188;-74
2022/08/13 07:10:47;;;;;;;9.60;4.88;;;24.10;45.80;;;;;;4995935;28;20042;-74
2022/08/13 07:13:13;;;;;;;9.38;4.28;;;24.30;45.60;;;;;;4992349;28;20577;-73
2022/08/13 07:15:45;;;;;;;10.65;4.50;;;24.50;45.10;;;;;;4992820;28;20118;-72
2022/08/13 07:18:11;;;;;;;9.38;4.38;;;24.70;44.50;;;;;;4993585;28;20061;-73
2022/08/13 07:20:37;;;;;;;6.80;3.95;;;25.00;44.50;;;;;;4995341;28;20868;-73
2022/08/13 07:23:03;;;;;;;7.10;3.33;;;25.20;43.40;;;;;;4993955;28;20552;-80
2022/08/13 07:25:32;;;;;;;8.50;3.67;;;25.40;43.50;;;;;;4994950;28;20042;-84
2022/08/13 07:27:59;;;;;;;9.38;4.22;;;25.60;43.20;;;;;;4996103;28;20520;-83
2022/08/13 07:30:25;;;;;;;7.85;3.67;;;25.80;42.90;;;;;;4995816;28;20501;-83
2022/08/13 07:32:52;;;;;;;7.47;3.47;;;26.10;44.70;;;;;;4992337;28;20030;-86
2022/08/13 07:35:18;;;;;;;9.35;3.65;;;26.30;43.40;;;;;;4992686;28;21589;-83
2022/08/13 07:37:45;;;;;;;7.07;3.30;;;26.40;41.20;;;;;;4996718;28;20062;-86
2022/08/13 07:40:10;;;;;;;7.30;4.07;;;26.50;42.50;;;;;;4996836;28;20040;-83
2022/08/13 07:42:39;;;;;;;5.53;2.90;;;26.70;41.40;;;;;;4997337;28;20042;-75
2022/08/13 07:45:06;;;;;;;5.50;2.50;;;27.00;39.40;;;;;;4987098;28;20406;-79
2022/08/13 07:47:33;;;;;;;8.05;2.88;;;27.30;38.90;;;;;;4989959;28;20033;-75
2022/08/13 07:50:01;;;;;;;6.25;2.92;;;27.50;38.90;;;;;;4990944;28;20307;-78
2022/08/13 07:52:29;;;;;;;7.05;2.90;;;27.70;38.30;;;;;;4992687;28;20193;-79
2022/08/13 07:54:56;;;;;;;6.82;2.53;;;27.90;38.40;;;;;;4994332;28;20046;-76
2022/08/13 07:57:23;;;;;;;8.82;2.80;;;28.10;37.10;;;;;;4993188;28;20092;-77
2022/08/13 07:59:49;;;;;;;9.20;2.35;;;28.30;36.20;;;;;;4994794;28;20124;-78
2022/08/13 08:02:15;;;;;;;5.45;2.33;;;28.60;36.10;;;;;;4991221;28;20037;-76
2022/08/13 08:04:41;;;;;;;6.43;2.22;;;28.70;34.50;;;;;;4996849;28;20033;-77
2022/08/13 08:07:08;;;;;;;7.38;2.60;;;28.90;34.80;;;;;;4991179;28;20046;-76
2022/08/13 08:09:34;;;;;;;5.50;2.00;;;29.00;34.70;;;;;;4987608;28;20030;-77
2022/08/13 08:14:48;;;;;;;7.93;2.15;;;29.40;33.50;;;;;;4992355;28;20052;-75
2022/08/13 08:17:13;;;;;;;5.40;2.30;;;29.60;32.50;;;;;;4990684;28;20054;-74
2022/08/13 08:19:41;;;;;;;4.82;2.00;;;29.50;32.50;;;;;;4993558;28;20486;-73
2022/08/13 08:22:07;;;;;;;5.10;2.20;;;29.60;32.80;;;;;;4992782;28;20053;-73
2022/08/13 08:24:34;;;;;;;4.45;1.95;;;29.80;32.30;;;;;;4994017;28;20022;-75
2022/08/13 08:27:01;;;;;;;5.85;2.30;;;30.00;32.20;;;;;;4997250;28;20046;-76
2022/08/13 08:29:28;;;;;;;8.02;2.22;;;30.10;31.60;;;;;;4992174;28;20521;-73
2022/08/13 08:31:54;;;;;;;6.43;2.08;;;30.30;31.60;;;;;;4995555;28;20048;-74
2022/08/13 08:34:20;;;;;;;5.45;2.28;;;30.30;31.60;;;;;;4993258;28;20041;-74
2022/08/13 08:36:46;;;;;;;6.28;2.50;;;30.40;31.90;;;;;;4991211;28;20045;-74
2022/08/13 08:44:44;;;;;;;7.38;1.88;;;30.70;29.60;;;;;;4994924;28;20045;-76
2022/08/13 08:47:11;;;;;;;5.15;2.00;;;30.90;29.30;;;;;;4995879;28;20048;-76
2022/08/13 08:49:39;;;;;;;5.00;1.83;;;30.90;29.80;;;;;;4995164;28;20036;-77
2022/08/13 08:52:06;;;;;;;5.25;1.90;;;31.10;30.20;;;;;;4995145;28;20492;-77
2022/08/13 08:54:32;;;;;;;5.85;2.10;;;31.30;30.00;;;;;;4991949;28;20108;-78
2022/08/13 08:56:58;;;;;;;3.13;1.70;;;31.30;29.10;;;;;;4996342;28;20049;-79
2022/08/13 08:59:32;;;;;;;4.78;1.77;;;31.30;29.00;;;;;;4993415;28;20074;-77
2022/08/13 09:01:59;;;;;;;6.15;1.80;;;31.40;28.30;;;;;;4994131;28;20030;-78
2022/08/13 09:04:25;;;;;;;4.32;2.00;;;31.50;28.40;;;;;;4992168;28;21260;-76
2022/08/13 09:06:57;;;;;;;5.32;1.60;;;31.80;28.70;;;;;;4997217;28;20045;-77
2022/08/13 09:09:24;;;;;;;3.58;1.63;;;31.80;27.00;;;;;;4991354;28;20052;-78
2022/08/13 09:11:55;;;;;;;5.70;1.92;;;31.80;26.90;;;;;;4993544;28;20125;-78
2022/08/13 09:14:27;;;;;;;5.88;1.63;;;32.00;27.30;;;;;;4992344;28;20035;-81
2022/08/13 09:16:55;;;;;;;4.38;1.83;;;32.10;28.00;;;;;;4991364;28;20060;-76
2022/08/13 09:19:23;;;;;;;5.40;1.50;;;32.30;26.50;;;;;;4988629;28;20479;-76
2022/08/13 09:21:49;;;;;;;4.53;1.50;;;32.30;25.70;;;;;;4991301;28;20084;-75
2022/08/13 09:24:15;;;;;;;4.72;1.33;;;32.20;25.60;;;;;;4990181;28;20116;-77
2022/08/13 09:26:51;;;;;;;4.82;1.38;;;32.20;26.00;;;;;;4991196;28;20108;-78
2022/08/13 09:29:19;;;;;;;5.85;1.40;;;32.20;25.50;;;;;;4991111;28;20062;-79
2022/08/13 09:31:48;;;;;;;3.50;1.48;;;32.10;25.70;;;;;;4992286;28;20034;-76
2022/08/13 09:34:14;;;;;;;2.50;1.10;;;32.30;24.70;;;;;;4994868;28;20030;-77
2022/08/13 09:36:40;;;;;;;4.22;1.30;;;32.30;24.80;;;;;;4987844;28;20042;-77
2022/08/13 09:39:06;;;;;;;4.38;1.40;;;32.30;24.90;;;;;;4985395;28;20080;-77
2022/08/13 09:41:37;;;;;;;3.63;1.10;;;32.50;25.00;;;;;;4988208;28;20035;-79
2022/08/13 09:44:04;;;;;;;2.58;1.17;;;32.60;25.00;;;;;;4989324;28;20049;-76
2022/08/13 09:46:34;;;;;;;5.80;1.50;;;32.80;23.60;;;;;;4987942;28;20045;-75
2022/08/13 09:49:00;;;;;;;3.55;1.27;;;32.90;24.50;;;;;;4990287;28;20026;-76
2022/08/13 09:51:34;;;;;;;6.85;1.40;;;33.00;24.40;;;;;;4995195;28;20651;-79
2022/08/13 09:54:05;;;;;;;6.43;2.17;;;32.80;23.50;;;;;;4998835;28;20059;-76
2022/08/13 09:56:37;;;;;;;1.65;1.10;;;32.80;23.90;;;;;;4999819;28;20482;-77
2022/08/13 09:59:04;;;;;;;3.55;1.40;;;33.00;24.10;;;;;;4994395;28;20038;-76
2022/08/13 10:01:30;;;;;;;2.53;1.10;;;33.30;23.60;;;;;;4997340;28;20415;-79
2022/08/13 10:03:56;;;;;;;1.60;1.05;;;33.40;23.00;;;;;;4994203;28;20052;-77
2022/08/13 10:06:21;;;;;;;4.10;1.50;;;33.30;23.70;;;;;;4992827;28;20038;-76
2022/08/13 10:08:47;;;;;;;5.70;1.35;;;33.50;23.70;;;;;;4992579;28;20120;-80
2022/08/13 10:11:16;;;;;;;1.88;1.00;;;33.50;23.40;;;;;;4991834;28;20425;-78
2022/08/13 10:13:43;;;;;;;4.65;1.20;;;33.50;23.20;;;;;;4994121;28;20164;-76
2022/08/13 10:16:10;;;;;;;1.77;1.20;;;33.50;23.30;;;;;;4995708;28;20686;-77
2022/08/13 10:18:36;;;;;;;5.10;1.67;;;33.50;23.10;;;;;;4993399;28;20044;-78
2022/08/13 10:21:01;;;;;;;2.30;1.40;;;33.60;23.50;;;;;;4993790;28;20038;-77
2022/08/13 10:23:27;;;;;;;3.17;1.30;;;33.70;23.30;;;;;;4994779;28;20048;-76
2022/08/13 10:25:53;;;;;;;2.03;1.13;;;33.60;23.50;;;;;;4992675;28;20109;-77
2022/08/13 10:28:24;;;;;;;3.95;1.65;;;33.70;23.40;;;;;;4991353;28;20042;-76
2022/08/13 10:30:51;;;;;;;4.22;1.17;;;33.80;23.40;;;;;;4996157;28;20046;-77
2022/08/13 10:33:17;;;;;;;4.97;1.45;;;33.70;23.50;;;;;;4993419;28;20042;-75
2022/08/13 10:35:44;;;;;;;3.85;1.40;;;33.80;23.80;;;;;;4993031;28;20100;-76
2022/08/13 10:38:18;;;;;;;1.85;1.20;;;33.70;23.50;;;;;;4994351;28;20141;-78
2022/08/13 10:40:43;;;;;;;4.28;1.30;;;33.80;23.30;;;;;;4990493;28;20084;-76
2022/08/13 10:43:10;;;;;;;3.60;1.23;;;34.00;22.90;;;;;;4994266;28;20152;-77
2022/08/13 10:45:37;;;;;;;5.95;1.52;;;34.10;23.00;;;;;;4993409;28;20039;-76
2022/08/13 10:48:14;;;;;;;5.57;1.63;;;34.00;22.80;;;;;;4997140;28;20548;-77
2022/08/13 10:50:40;;;;;;;3.42;1.40;;;34.10;22.90;;;;;;4995881;28;20497;-80
2022/08/13 10:53:07;;;;;;;4.57;1.50;;;34.30;22.60;;;;;;4997709;28;20038;-78
2022/08/13 10:55:35;;;;;;;3.63;1.50;;;34.30;22.80;;;;;;4995957;28;20039;-78
2022/08/13 10:58:01;;;;;;;4.32;1.60;;;34.30;22.40;;;;;;4994429;28;20041;-77
2022/08/13 11:00:27;;;;;;;4.13;1.67;;;34.40;22.60;;;;;;4992431;28;20045;-77
2022/08/13 11:02:53;;;;;;;3.55;1.60;;;34.10;22.90;;;;;;4989543;28;20040;-78
2022/08/13 11:05:22;;;;;;;2.72;1.60;;;34.30;22.50;;;;;;4995121;28;20065;-78
2022/08/13 11:07:49;;;;;;;3.80;1.48;;;34.50;23.00;;;;;;4994509;28;20062;-79
2022/08/13 11:10:15;;;;;;;1.80;1.40;;;34.60;23.10;;;;;;5024261;28;20181;-77
2022/08/13 11:12:50;;;;;;;2.58;1.50;;;34.60;22.40;;;;;;4988923;28;20046;-77
2022/08/13 11:15:21;;;;;;;4.22;1.52;;;34.50;22.40;;;;;;4992573;28;20042;-75
2022/08/13 11:17:49;;;;;;;4.72;1.60;;;34.00;22.60;;;;;;4994811;28;20038;-77
2022/08/13 11:20:19;;;;;;;2.92;1.63;;;34.10;22.70;;;;;;4993188;28;20042;-79
2022/08/13 11:22:50;;;;;;;4.18;1.92;;;34.20;22.80;;;;;;4990063;28;20492;-78
2022/08/13 11:25:17;;;;;;;9.68;2.80;;;34.30;22.20;;;;;;4989513;28;20113;-78
2022/08/13 11:27:43;;;;;;;4.20;1.55;;;34.10;22.50;;;;;;5003635;28;20065;-77
2022/08/13 11:30:09;;;;;;;2.78;1.52;;;34.40;22.70;;;;;;5021594;28;20145;-79
2022/08/13 11:32:35;;;;;;;4.18;1.63;;;34.50;22.70;;;;;;4989711;28;20533;-77
2022/08/13 11:35:02;;;;;;;4.55;1.52;;;34.70;22.50;;;;;;4997479;28;20698;-76
2022/08/13 11:37:27;;;;;;;3.10;1.50;;;34.90;21.60;;;;;;4990970;28;20036;-78
2022/08/13 11:39:53;;;;;;;4.00;1.65;;;34.70;22.20;;;;;;4993073;28;20031;-75
2022/08/13 11:42:19;;;;;;;4.25;1.45;;;34.60;21.90;;;;;;4992281;28;20069;-76
2022/08/13 11:44:44;;;;;;;5.18;1.77;;;34.30;22.70;;;;;;4992447;28;20112;-77
2022/08/13 11:47:10;;;;;;;2.92;1.38;;;34.20;22.60;;;;;;4988999;28;20034;-76
2022/08/13 11:49:36;;;;;;;2.65;1.40;;;34.10;22.90;;;;;;4990412;28;20102;-77
2022/08/13 11:52:01;;;;;;;2.30;1.67;;;34.30;22.90;;;;;;4991495;28;20172;-78
2022/08/13 11:54:27;;;;;;;4.88;1.75;;;34.50;22.50;;;;;;4990517;28;20759;-75
2022/08/13 11:56:53;;;;;;;4.65;1.67;;;34.50;23.00;;;;;;4991404;28;20132;-75
2022/08/13 11:59:18;;;;;;;4.65;1.40;;;34.60;23.00;;;;;;4993407;28;20041;-78
2022/08/13 12:01:44;;;;;;;4.78;2.33;;;34.60;22.60;;;;;;4993984;28;20038;-77
2022/08/13 12:04:12;;;;;;;5.63;1.55;;;34.80;22.30;;;;;;4994707;28;20038;-76
2022/08/13 12:06:38;;;;;;;3.00;1.50;;;34.90;22.20;;;;;;4995702;28;20042;-77
2022/08/13 12:09:04;;;;;;;4.40;1.35;;;35.00;22.70;;;;;;4992571;28;20153;-76
2022/08/13 12:11:30;;;;;;;2.58;1.40;;;35.10;22.10;;;;;;4992767;28;20042;-74
2022/08/13 12:13:56;;;;;;;3.47;1.48;;;35.20;21.60;;;;;;4995697;28;20088;-75
2022/08/13 12:16:23;;;;;;;2.75;1.50;;;35.30;22.40;;;;;;4993933;28;20095;-74
2022/08/13 12:18:49;;;;;;;5.47;1.50;;;35.30;22.10;;;;;;4994158;28;20034;-76
2022/08/13 12:21:14;;;;;;;5.35;1.60;;;35.00;21.70;;;;;;4991845;28;20048;-77
2022/08/13 12:23:40;;;;;;;9.65;1.60;;;35.20;22.00;;;;;;4993233;28;20577;-75
2022/08/13 12:26:06;;;;;;;4.03;1.50;;;35.10;21.80;;;;;;4994479;28;20038;-75
2022/08/13 12:28:32;;;;;;;3.75;1.40;;;34.90;22.00;;;;;;4994576;28;20031;-75
2022/08/13 12:31:00;;;;;;;2.40;1.52;;;34.90;22.20;;;;;;4996685;28;20040;-74
2022/08/13 12:33:29;;;;;;;3.25;1.48;;;34.60;22.00;;;;;;4995728;28;20116;-75
2022/08/13 12:35:55;;;;;;;3.92;1.52;;;34.60;22.50;;;;;;5005473;28;20038;-74
2022/08/13 12:38:21;;;;;;;4.50;1.42;;;34.40;22.80;;;;;;4996833;28;20386;-75
2022/08/13 12:40:47;;;;;;;2.70;1.50;;;34.40;22.70;;;;;;4993741;28;20038;-76
2022/08/13 12:43:14;;;;;;;5.38;1.58;;;34.50;22.80;;;;;;5000047;28;20030;-75
2022/08/13 12:45:42;;;;;;;3.67;1.33;;;34.50;22.10;;;;;;4992909;28;20482;-75
2022/08/13 12:48:11;;;;;;;3.28;1.70;;;34.60;22.20;;;;;;5008509;28;20386;-75
2022/08/13 12:50:39;;;;;;;2.53;1.25;;;34.60;22.20;;;;;;5005198;28;20034;-76
2022/08/13 12:53:06;;;;;;;3.67;1.30;;;35.00;21.80;;;;;;4993307;28;20070;-75
2022/08/13 12:55:35;;;;;;;2.97;1.23;;;35.10;22.10;;;;;;4999557;28;20121;-75
2022/08/13 12:58:20;;;;;;;3.65;1.25;;;35.00;22.20;;;;;;4990503;28;20049;-75
2022/08/13 13:00:47;;;;;;;8.52;1.40;;;35.10;22.70;;;;;;5009724;28;20726;-76
2022/08/13 13:03:13;;;;;;;2.97;1.60;;;35.00;22.00;;;;;;5025471;28;20037;-76